»·PEaware :: AAL8021 KSAN-KLAS

AAL8021 :: KSAN-KLAS

FLIGHT INFORMATION

Flight Status: Arrived
Operator:
American Airlines
More flights by this operator :: More flights under this callsign
Pilot: Gustavo R. (23885)
Aircraft: AIRBUS A320
(A320)
More flights by this aircraft type
Origin: KSAN San Diego Intl-Lindbergh
United States
Destination: KLAS McCarran Intl
United States
More flights between these airports :: More routes between these airports
Route: +PADRZ2 CHKNN SEBBY YELAH MISEN KEPEC6
File this flight plan on PilotEdge
Remarks:
Altitude:
(Current/Filed)
27,000ft
Speed:
(Current/Filed)
400kts
Departed: 28-Oct-20 12:22 PM
Arrived: 28-Oct-20 01:24 PM
Distance/Time
Traveled:
225nm/1:01
Distance/Time
To Go:
Arrived

Flight Plot

Page will automatically refresh every two minutes.

Flight plan parsing failed; only flown route is shown


Map Options




Map Legend


Flown Route
Filed Route
Departure Airport
Arrival Airport
Navaid (VOR, NDB)
Fix

Horizontal Profiles

Position Reports

Time Latitude Longitude Heading Altitude Ground
Speed
28-Oct-20 11:31 32.733000 -117.198830 96 19ft 0kts
28-Oct-20 11:32 32.733000 -117.198830 96 19ft 0kts
28-Oct-20 11:33 32.733000 -117.198830 96 19ft 0kts
28-Oct-20 11:34 32.733000 -117.198830 96 19ft 0kts
28-Oct-20 11:35 32.733000 -117.198830 96 19ft 0kts
28-Oct-20 11:36 32.733000 -117.198830 96 19ft 0kts
28-Oct-20 11:37 32.733000 -117.198830 96 19ft 0kts
28-Oct-20 11:38 32.733000 -117.198830 96 19ft 0kts
28-Oct-20 11:39 32.733000 -117.198830 96 19ft 0kts
28-Oct-20 11:40 32.733000 -117.198830 96 19ft 0kts
28-Oct-20 11:41 32.733000 -117.198830 96 19ft 0kts
28-Oct-20 11:42 32.733000 -117.198830 96 19ft 0kts
28-Oct-20 11:43 32.733000 -117.198830 96 19ft 0kts
28-Oct-20 11:44 32.733000 -117.198830 96 19ft 0kts
28-Oct-20 11:45 32.733000 -117.198830 96 19ft 0kts
28-Oct-20 11:46 32.733000 -117.198830 96 19ft 0kts
28-Oct-20 11:47 32.733000 -117.198830 96 19ft 0kts
28-Oct-20 11:48 32.733000 -117.198830 96 19ft 0kts
28-Oct-20 11:49 32.733000 -117.198830 96 19ft 0kts
28-Oct-20 11:50 32.733000 -117.198830 96 19ft 0kts
28-Oct-20 11:51 32.733000 -117.198830 96 19ft 0kts
28-Oct-20 11:52 32.733000 -117.198830 96 19ft 0kts
28-Oct-20 11:53 32.733000 -117.198830 96 19ft 0kts
28-Oct-20 11:54 32.733000 -117.198830 96 19ft 0kts
28-Oct-20 11:55 32.733000 -117.198830 96 19ft 0kts
28-Oct-20 11:56 32.733000 -117.198830 96 19ft 0kts
28-Oct-20 11:57 32.733000 -117.198830 96 19ft 0kts
28-Oct-20 11:58 32.733000 -117.198830 96 19ft 0kts
28-Oct-20 11:59 32.733000 -117.198830 96 19ft 0kts
28-Oct-20 12:00 32.733000 -117.198830 96 19ft 0kts
28-Oct-20 12:01 32.733000 -117.198830 96 19ft 0kts
28-Oct-20 12:02 32.733000 -117.198830 96 19ft 0kts
28-Oct-20 12:03 32.732998 -117.198863 81 19ft 0kts
28-Oct-20 12:04 32.732987 -117.198951 81 19ft 2kts
28-Oct-20 12:05 32.732596 -117.199549 356 20ft 2kts
28-Oct-20 12:06 32.732580 -117.199547 356 20ft 0kts
28-Oct-20 12:07 32.732580 -117.199547 356 20ft 0kts
28-Oct-20 12:08 32.732580 -117.199547 356 20ft 0kts
28-Oct-20 12:09 32.732580 -117.199547 356 20ft 0kts
28-Oct-20 12:10 32.732580 -117.199547 356 20ft 0kts
28-Oct-20 12:11 32.732580 -117.199547 356 20ft 0kts
28-Oct-20 12:12 32.733430 -117.199818 7 23ft 9kts
28-Oct-20 12:13 32.734139 -117.199644 13 22ft 0kts
28-Oct-20 12:14 32.734737 -117.199293 58 23ft 10kts
28-Oct-20 12:15 32.733678 -117.194361 106 22ft 21kts
28-Oct-20 12:16 32.731653 -117.186093 106 22ft 29kts
28-Oct-20 12:17 32.729185 -117.177687 81 15ft 14kts
28-Oct-20 12:18 32.729341 -117.177133 68 16ft 0kts
28-Oct-20 12:19 32.729345 -117.177121 68 16ft 2kts
28-Oct-20 12:21 32.730646 -117.177594 285 17ft 0kts
28-Oct-20 12:22 32.738451 -117.209867 286 1018ft 164kts
28-Oct-20 12:23 32.768708 -117.262758 304 2764ft 260kts
28-Oct-20 12:24 32.812107 -117.334844 307 6777ft 275kts
28-Oct-20 12:25 32.858830 -117.408546 310 8928ft 284kts
28-Oct-20 12:26 32.910901 -117.490023 310 11449ft 336kts
28-Oct-20 12:27 32.968580 -117.579749 308 14738ft 348kts
28-Oct-20 12:28 33.027825 -117.672723 307 17623ft 360kts
28-Oct-20 12:29 33.097368 -117.759602 317 20101ft 373kts
28-Oct-20 12:30 33.176734 -117.842965 319 22370ft 385kts
28-Oct-20 12:31 33.260265 -117.924630 320 22942ft 392kts
28-Oct-20 12:32 33.342881 -118.005656 319 22948ft 391kts
28-Oct-20 12:33 33.426639 -118.088205 319 23057ft 388kts
28-Oct-20 12:34 33.508686 -118.169309 319 23743ft 394kts
28-Oct-20 12:34 33.582606 -118.233233 330 24776ft 398kts
28-Oct-20 12:36 33.695569 -118.300234 333 26707ft 410kts
28-Oct-20 12:36 33.787178 -118.321726 10 26934ft 417kts
28-Oct-20 12:38 33.851895 -118.208225 127 26278ft 429kts
28-Oct-20 12:38 33.817019 -118.100164 93 26819ft 421kts
28-Oct-20 12:40 33.873476 -117.964210 32 27083ft 420kts
28-Oct-20 12:40 33.956880 -117.919153 22 27094ft 416kts
28-Oct-20 12:41 34.050123 -117.836367 45 27096ft 432kts
28-Oct-20 12:42 34.131278 -117.719049 49 27099ft 477kts
28-Oct-20 12:43 34.215966 -117.593589 49 27109ft 484kts
28-Oct-20 12:44 34.301328 -117.467616 49 27107ft 487kts
28-Oct-20 12:45 34.386950 -117.341259 49 27112ft 487kts
28-Oct-20 12:46 34.472854 -117.214211 50 27117ft 487kts
28-Oct-20 12:47 34.558751 -117.086770 50 27120ft 487kts
28-Oct-20 12:48 34.639031 -116.967205 50 27084ft 434kts
28-Oct-20 12:49 34.711534 -116.858898 50 24930ft 417kts
28-Oct-20 12:50 34.783575 -116.750947 50 24143ft 415kts
28-Oct-20 12:51 34.860353 -116.645301 40 24129ft 417kts
28-Oct-20 12:52 34.949655 -116.555212 38 24128ft 417kts
28-Oct-20 12:53 35.039919 -116.466137 38 24129ft 418kts
28-Oct-20 12:54 35.124815 -116.373297 44 23928ft 386kts
28-Oct-20 12:55 35.198663 -116.282366 43 22300ft 361kts
28-Oct-20 12:56 35.265142 -116.199537 45 21123ft 337kts
28-Oct-20 12:57 35.330033 -116.118165 45 19536ft 329kts
28-Oct-20 12:58 35.392980 -116.038833 45 18085ft 319kts
28-Oct-20 12:59 35.453751 -115.962010 45 16662ft 309kts
28-Oct-20 13:00 35.512573 -115.887465 45 15302ft 299kts
28-Oct-20 13:01 35.569259 -115.815440 45 14017ft 288kts
28-Oct-20 13:02 35.624336 -115.745331 45 13031ft 288kts
28-Oct-20 13:03 35.678329 -115.676445 45 13009ft 282kts
28-Oct-20 13:04 35.730170 -115.610162 45 13017ft 255kts
28-Oct-20 13:05 35.794852 -115.579557 7 13016ft 260kts
28-Oct-20 13:06 35.867073 -115.572009 5 13014ft 261kts
28-Oct-20 13:07 35.938202 -115.566469 5 13017ft 261kts
28-Oct-20 13:08 35.987497 -115.508986 65 13013ft 264kts
28-Oct-20 13:09 36.014717 -115.424208 65 12022ft 264kts
28-Oct-20 13:10 36.024076 -115.333508 88 10811ft 271kts
28-Oct-20 13:11 36.020395 -115.243090 91 9447ft 246kts
28-Oct-20 13:12 36.015042 -115.162008 91 9045ft 231kts
28-Oct-20 13:13 36.011443 -115.080924 94 8496ft 242kts
28-Oct-20 13:14 36.007618 -115.000709 95 8056ft 228kts
28-Oct-20 13:15 35.997208 -114.922385 97 8048ft 233kts
28-Oct-20 13:16 35.990785 -114.843778 70 7930ft 232kts
28-Oct-20 13:17 36.042968 -114.816772 330 6898ft 229kts
28-Oct-20 13:18 36.070559 -114.877831 291 6295ft 199kts
28-Oct-20 13:19 36.074014 -114.944888 271 4914ft 188kts
28-Oct-20 13:20 36.073879 -115.003751 271 3941ft 158kts
28-Oct-20 13:21 36.073780 -115.059548 271 3145ft 163kts
28-Oct-20 13:22 36.073717 -115.109636 271 2358ft 134kts
28-Oct-20 13:23 36.073667 -115.143246 270 2115ft 18kts
28-Oct-20 13:24 36.074129 -115.149245 294 2130ft 16kts
28-Oct-20 13:25 36.077247 -115.152480 335 2154ft 24kts
28-Oct-20 13:26 36.081878 -115.152039 322 2135ft 11kts
28-Oct-20 13:27 36.082317 -115.152755 356 2135ft 0kts
28-Oct-20 13:28 36.082317 -115.152755 356 2135ft 0kts
28-Oct-20 13:29 36.082317 -115.152755 356 2135ft 0kts
28-Oct-20 13:30 36.082317 -115.152755 356 2135ft 0kts
28-Oct-20 13:31 36.082317 -115.152755 356 2135ft 0kts
28-Oct-20 13:32 36.082317 -115.152755 356 2135ft 0kts
28-Oct-20 13:33 36.082317 -115.152755 356 2135ft 0kts
28-Oct-20 13:34 36.082317 -115.152755 356 2135ft 0kts
28-Oct-20 13:35 36.082317 -115.152755 356 2135ft 0kts
28-Oct-20 13:36 36.082317 -115.152755 356 2135ft 0kts

Navigation Log

Ident Type
Flight plan parsing failed, navigation log unavailable